Aloma, FL

2:46 PM EDT on September 04, 2015 (GMT -0400)
APRSWXNET | | Change Station
CLOSE
Current Station
Personal Weather Station
Location: Winter Park, FL
Elevation: 109 ft
Nearby Weather Stations

Elev 109 ft 28.61 °N, 81.31 °W | Updated 17 minutes ago

Mostly Cloudy
Mostly Cloudy
90 °F
Feels Like 100 °F
N
2
Wind Variable Wind from WSW
Gusts 9.0 mph

Today
High -- | Low -- °F
--% Chance of Precip.
Yesterday
High -- | Low -- °F
Precip. -- in
7:04 AM 7:43 PM
Waning Gibbous, 57% visible
Pressure 29.95 in
Visibility 10.0 miles
Clouds Mostly Cloudy 4100 ft
Mostly Cloudy 5000 ft
Mostly Cloudy 11000 ft
Heat Index 100 °F
Dew Point 74 °F
Humidity 60%
Rainfall in
Snow Depth Not available.
UV 7 out of 12
Pollen 6.90 out of 12
Air Quality Not available.
Flu Activity Not available.
SPECI KORL 041841Z 10005KT 10SM TS BKN041 BKN050 BKN110 31/24 A2995 RMK AO2 LTG DSNT ALQDS TSB35 T03110239
Pressure 29.95 in
Visibility 10.0 miles
Clouds Mostly Cloudy 4100 ft
Mostly Cloudy 5000 ft
Mostly Cloudy 11000 ft
Heat Index 100 °F
Dew Point 74 °F
Humidity 60%
Rainfall in
Snow Depth Not available.
UV 7 out of 12
Pollen 6.90 out of 12
Air Quality Not available.
Flu Activity Not available.
SPECI KORL 041841Z 10005KT 10SM TS BKN041 BKN050 BKN110 31/24 A2995 RMK AO2 LTG DSNT ALQDS TSB35 T03110239

10-Day Weather Forecast

×

Almanac

Astronomy

Sep. 04, 2015 Rise Set
Actual Time
Civil Twilight
Nautical Twilight
Astronomical Twilight
Moon
Length of Visible Light
Length of Day
Tomorrow will be .
, % of the Moon is Illuminated

Today's Extremes

State Highs State Lows

Community

WunderPhotos

Upload Photos

1,852,262 photos uploaded!

WunderBlogs® & News

Nearby

Air Quality

  Air Quality AQ Index Pollutant
Not available.

Snow Depth

Station Depth Elevation

Earthquake Activity

City Distance Mag. Time & Date
Minimum magnitude displayed is 2.5.

Coastal Water Temperatures

Place Temperature

Stations

Nearby Weather Stations

Station Location Temp. Windchill Dew Point Humidity Wind Precip. Elev Updated Type